FIN2KE EDDH-EFHK
Flight info
| Callsign | FIN2KE |
|---|---|
| Flight time | 1h 34m |
| Altitude | 37000 |
| Route | LUGEG3C LUGEG P605 GESKA DCT EKRAL DCT ALAMI DCT OKEVU DCT EVADI Y370 DIVAM |
| Aircraft | A320/M-SDE3FGHIRWY/LB1 |
Departure
| Time | 2026-05-07 16:33 |
|---|---|
| Airport | Hamburg Helmut Schmidt Airport (EDDH) |
Arrival
| Time | 2026-05-07 18:07 |
|---|---|
| Airport | Helsinki Vantaa Airport (EFHK) |
| Time | Latitude | Longitude | Altitude | Speed | Heading |
|---|---|---|---|---|---|
| 2026-05-07 16:02 | 53.63414 | 10.00353 | 49 ft | 0 kts | 86° |
| 2026-05-07 16:17 | 53.63414 | 10.00343 | 48 ft | 1 kts | 86° |
| 2026-05-07 16:18 | 53.63413 | 10.00327 | 46 ft | 1 kts | 86° |
| 2026-05-07 16:18 | 53.63412 | 10.00311 | 47 ft | 1 kts | 86° |
| 2026-05-07 16:18 | 53.63412 | 10.00295 | 45 ft | 1 kts | 86° |
| 2026-05-07 16:18 | 53.63411 | 10.00278 | 46 ft | 2 kts | 86° |
| 2026-05-07 16:19 | 53.63410 | 10.00254 | 46 ft | 2 kts | 86° |
| 2026-05-07 16:19 | 53.63409 | 10.00231 | 48 ft | 2 kts | 86° |
| 2026-05-07 16:19 | 53.63408 | 10.00207 | 48 ft | 2 kts | 86° |
| 2026-05-07 16:19 | 53.63407 | 10.00184 | 48 ft | 2 kts | 86° |
| 2026-05-07 16:20 | 53.63406 | 10.00160 | 48 ft | 2 kts | 86° |
| 2026-05-07 16:20 | 53.63406 | 10.00154 | 48 ft | 0 kts | 86° |
| 2026-05-07 16:21 | 53.63404 | 10.00166 | 48 ft | 2 kts | 108° |
| 2026-05-07 16:21 | 53.63393 | 10.00164 | 45 ft | 1 kts | 212° |
| 2026-05-07 16:21 | 53.63387 | 10.00157 | 46 ft | 1 kts | 198° |
| 2026-05-07 16:21 | 53.63379 | 10.00159 | 48 ft | 1 kts | 175° |
| 2026-05-07 16:22 | 53.63376 | 10.00160 | 48 ft | 0 kts | 175° |
| 2026-05-07 16:24 | 53.63375 | 10.00160 | 46 ft | 1 kts | 175° |
| 2026-05-07 16:25 | 53.63347 | 10.00163 | 48 ft | 6 kts | 175° |
| 2026-05-07 16:25 | 53.63302 | 10.00169 | 47 ft | 9 kts | 175° |
| 2026-05-07 16:25 | 53.63222 | 10.00179 | 48 ft | 12 kts | 176° |
| 2026-05-07 16:25 | 53.63145 | 10.00187 | 48 ft | 10 kts | 176° |
| 2026-05-07 16:26 | 53.63077 | 10.00189 | 48 ft | 9 kts | 190° |
| 2026-05-07 16:26 | 53.63028 | 10.00137 | 48 ft | 8 kts | 215° |
| 2026-05-07 16:26 | 53.62987 | 10.00091 | 48 ft | 7 kts | 211° |
| 2026-05-07 16:26 | 53.62963 | 10.00066 | 48 ft | 6 kts | 211° |
| 2026-05-07 16:27 | 53.62928 | 10.00021 | 48 ft | 4 kts | 233° |
| 2026-05-07 16:27 | 53.62919 | 9.99987 | 48 ft | 3 kts | 246° |
| 2026-05-07 16:27 | 53.62917 | 9.99980 | 48 ft | 1 kts | 244° |
| 2026-05-07 16:27 | 53.62909 | 9.99954 | 48 ft | 3 kts | 242° |
| 2026-05-07 16:28 | 53.62900 | 9.99926 | 48 ft | 3 kts | 243° |
| 2026-05-07 16:28 | 53.62894 | 9.99906 | 47 ft | 0 kts | 243° |
| 2026-05-07 16:30 | 53.62893 | 9.99903 | 47 ft | 1 kts | 243° |
| 2026-05-07 16:30 | 53.62888 | 9.99887 | 45 ft | 2 kts | 243° |
| 2026-05-07 16:30 | 53.62865 | 9.99809 | 45 ft | 10 kts | 243° |
| 2026-05-07 16:31 | 53.62857 | 9.99755 | 45 ft | 2 kts | 305° |
| 2026-05-07 16:31 | 53.62869 | 9.99742 | 42 ft | 4 kts | 331° |
| 2026-05-07 16:31 | 53.62882 | 9.99731 | 45 ft | 0 kts | 333° |
| 2026-05-07 16:32 | 53.62936 | 9.99686 | 45 ft | 28 kts | 334° |
| 2026-05-07 16:32 | 53.63339 | 9.99337 | 47 ft | 99 kts | 334° |
| 2026-05-07 16:32 | 53.64109 | 9.98670 | 51 ft | 151 kts | 332° |
| 2026-05-07 16:33 | 53.65156 | 9.97778 | 398 ft | 166 kts | 336° |
| 2026-05-07 16:33 | 53.66177 | 9.96912 | 1054 ft | 169 kts | 336° |
| 2026-05-07 16:33 | 53.67267 | 9.96002 | 1667 ft | 182 kts | 338° |
| 2026-05-07 16:33 | 53.68477 | 9.95010 | 2018 ft | 204 kts | 343° |
| 2026-05-07 16:34 | 53.69909 | 9.94689 | 2537 ft | 210 kts | 5° |
| 2026-05-07 16:34 | 53.71373 | 9.94702 | 3350 ft | 212 kts | 3° |
| 2026-05-07 16:34 | 53.72821 | 9.95043 | 4129 ft | 210 kts | 26° |
| 2026-05-07 16:34 | 53.74000 | 9.96521 | 4721 ft | 221 kts | 55° |
| 2026-05-07 16:35 | 53.74520 | 9.98057 | 4986 ft | 236 kts | 64° |
| 2026-05-07 16:35 | 53.75258 | 10.00654 | 5564 ft | 250 kts | 65° |
| 2026-05-07 16:35 | 53.76022 | 10.03351 | 6360 ft | 257 kts | 64° |
| 2026-05-07 16:35 | 53.76801 | 10.06093 | 7171 ft | 261 kts | 64° |
| 2026-05-07 16:36 | 53.77600 | 10.08880 | 7973 ft | 266 kts | 64° |
| 2026-05-07 16:36 | 53.78419 | 10.11730 | 8734 ft | 273 kts | 64° |
| 2026-05-07 16:36 | 53.79260 | 10.14658 | 9478 ft | 280 kts | 64° |
| 2026-05-07 16:36 | 53.80121 | 10.17654 | 10220 ft | 286 kts | 64° |
| 2026-05-07 16:37 | 53.81002 | 10.20712 | 10818 ft | 296 kts | 64° |
| 2026-05-07 16:37 | 53.81938 | 10.23967 | 11041 ft | 320 kts | 64° |
| 2026-05-07 16:37 | 53.82946 | 10.27483 | 11220 ft | 342 kts | 64° |
| 2026-05-07 16:37 | 53.83998 | 10.31169 | 11736 ft | 352 kts | 64° |
| 2026-05-07 16:38 | 53.85071 | 10.34938 | 12406 ft | 358 kts | 64° |
| 2026-05-07 16:38 | 53.86157 | 10.38755 | 13090 ft | 362 kts | 64° |
| 2026-05-07 16:38 | 53.87257 | 10.42623 | 13789 ft | 366 kts | 64° |
| 2026-05-07 16:38 | 53.88366 | 10.46537 | 14388 ft | 371 kts | 64° |
| 2026-05-07 16:39 | 53.89483 | 10.50490 | 15018 ft | 374 kts | 64° |
| 2026-05-07 16:39 | 53.90609 | 10.54480 | 15624 ft | 377 kts | 64° |
| 2026-05-07 16:39 | 53.91748 | 10.58510 | 16247 ft | 380 kts | 64° |
| 2026-05-07 16:39 | 53.92896 | 10.62578 | 16852 ft | 383 kts | 64° |
| 2026-05-07 16:40 | 53.94201 | 10.66543 | 17433 ft | 386 kts | 55° |
| 2026-05-07 16:40 | 53.95876 | 10.70048 | 18029 ft | 389 kts | 46° |
| 2026-05-07 16:40 | 53.97736 | 10.73413 | 18586 ft | 393 kts | 46° |
| 2026-05-07 16:40 | 53.99615 | 10.76814 | 19102 ft | 396 kts | 46° |
| 2026-05-07 16:41 | 54.01506 | 10.80245 | 19597 ft | 400 kts | 46° |
| 2026-05-07 16:41 | 54.03414 | 10.83725 | 20115 ft | 403 kts | 46° |
| 2026-05-07 16:41 | 54.05331 | 10.87231 | 20620 ft | 407 kts | 46° |
| 2026-05-07 16:41 | 54.07269 | 10.90779 | 21109 ft | 411 kts | 46° |
| 2026-05-07 16:42 | 54.09223 | 10.94365 | 21600 ft | 414 kts | 46° |
| 2026-05-07 16:42 | 54.11186 | 10.97975 | 22053 ft | 417 kts | 46° |
| 2026-05-07 16:42 | 54.13167 | 11.01622 | 22528 ft | 420 kts | 46° |
| 2026-05-07 16:42 | 54.15162 | 11.05311 | 22953 ft | 424 kts | 46° |
| 2026-05-07 16:43 | 54.17163 | 11.09025 | 23391 ft | 427 kts | 46° |
| 2026-05-07 16:43 | 54.19181 | 11.12782 | 23779 ft | 431 kts | 46° |
| 2026-05-07 16:43 | 54.21212 | 11.16570 | 24164 ft | 433 kts | 47° |
| 2026-05-07 16:43 | 54.23254 | 11.20383 | 24527 ft | 435 kts | 47° |
| 2026-05-07 16:44 | 54.25300 | 11.24207 | 24913 ft | 436 kts | 47° |
| 2026-05-07 16:44 | 54.27349 | 11.28044 | 25277 ft | 438 kts | 47° |
| 2026-05-07 16:44 | 54.29405 | 11.31900 | 25635 ft | 440 kts | 47° |
| 2026-05-07 16:44 | 54.31471 | 11.35783 | 25957 ft | 442 kts | 47° |
| 2026-05-07 16:45 | 54.33543 | 11.39690 | 26322 ft | 443 kts | 47° |
| 2026-05-07 16:45 | 54.35621 | 11.43615 | 26647 ft | 445 kts | 47° |
| 2026-05-07 16:45 | 54.37704 | 11.47556 | 26979 ft | 447 kts | 47° |
| 2026-05-07 16:45 | 54.39769 | 11.51458 | 27278 ft | 449 kts | 47° |
| 2026-05-07 16:46 | 54.41872 | 11.55431 | 27598 ft | 450 kts | 47° |
| 2026-05-07 16:46 | 54.43988 | 11.59432 | 27887 ft | 453 kts | 47° |
| 2026-05-07 16:46 | 54.46108 | 11.63446 | 28206 ft | 453 kts | 47° |
| 2026-05-07 16:46 | 54.48225 | 11.67457 | 28565 ft | 453 kts | 47° |
| 2026-05-07 16:47 | 54.50347 | 11.71480 | 28873 ft | 454 kts | 47° |
| 2026-05-07 16:47 | 54.52464 | 11.75503 | 29141 ft | 455 kts | 47° |
| 2026-05-07 16:47 | 54.54593 | 11.79559 | 29401 ft | 456 kts | 47° |
| 2026-05-07 16:47 | 54.56727 | 11.83629 | 29643 ft | 457 kts | 47° |
| 2026-05-07 16:48 | 54.58855 | 11.87694 | 30001 ft | 456 kts | 47° |
| 2026-05-07 16:48 | 54.60977 | 11.91755 | 30329 ft | 455 kts | 48° |
| 2026-05-07 16:48 | 54.63091 | 11.95731 | 30547 ft | 456 kts | 46° |
| 2026-05-07 16:48 | 54.65347 | 11.99691 | 30761 ft | 457 kts | 44° |
| 2026-05-07 16:49 | 54.67636 | 12.03499 | 31038 ft | 456 kts | 43° |
| 2026-05-07 16:49 | 54.69939 | 12.07236 | 31429 ft | 452 kts | 43° |
| 2026-05-07 16:49 | 54.72224 | 12.10947 | 31779 ft | 449 kts | 43° |
| 2026-05-07 16:49 | 54.74452 | 12.14612 | 32096 ft | 447 kts | 44° |
| 2026-05-07 16:50 | 54.76688 | 12.18350 | 32402 ft | 446 kts | 44° |
| 2026-05-07 16:50 | 54.78913 | 12.22119 | 32708 ft | 445 kts | 44° |
| 2026-05-07 16:50 | 54.81115 | 12.25883 | 32999 ft | 444 kts | 44° |
| 2026-05-07 16:50 | 54.83312 | 12.29650 | 33291 ft | 443 kts | 44° |
| 2026-05-07 16:51 | 54.85504 | 12.33412 | 33580 ft | 443 kts | 44° |
| 2026-05-07 16:51 | 54.87693 | 12.37167 | 33863 ft | 442 kts | 44° |
| 2026-05-07 16:51 | 54.89766 | 12.40721 | 34130 ft | 441 kts | 44° |
| 2026-05-07 16:51 | 54.91947 | 12.44458 | 34404 ft | 439 kts | 44° |
| 2026-05-07 16:52 | 54.94125 | 12.48194 | 34632 ft | 440 kts | 44° |
| 2026-05-07 16:52 | 54.96275 | 12.51884 | 34805 ft | 440 kts | 44° |
| 2026-05-07 16:52 | 54.98456 | 12.55635 | 34989 ft | 442 kts | 44° |
| 2026-05-07 16:52 | 55.00643 | 12.59404 | 35152 ft | 443 kts | 44° |
| 2026-05-07 16:53 | 55.02833 | 12.63188 | 35319 ft | 444 kts | 44° |
| 2026-05-07 16:53 | 55.05025 | 12.66982 | 35477 ft | 445 kts | 44° |
| 2026-05-07 16:53 | 55.07227 | 12.70795 | 35609 ft | 447 kts | 44° |
| 2026-05-07 16:53 | 55.09436 | 12.74622 | 35733 ft | 449 kts | 44° |
| 2026-05-07 16:54 | 55.11658 | 12.78478 | 35864 ft | 451 kts | 44° |
| 2026-05-07 16:54 | 55.13881 | 12.82348 | 35996 ft | 452 kts | 44° |
| 2026-05-07 16:54 | 55.16110 | 12.86238 | 36130 ft | 453 kts | 44° |
| 2026-05-07 16:54 | 55.18343 | 12.90139 | 36295 ft | 454 kts | 44° |
| 2026-05-07 16:55 | 55.20575 | 12.94046 | 36437 ft | 455 kts | 45° |
| 2026-05-07 16:55 | 55.22812 | 12.97971 | 36593 ft | 455 kts | 45° |
| 2026-05-07 16:55 | 55.25053 | 13.01913 | 36736 ft | 456 kts | 45° |
| 2026-05-07 16:55 | 55.27292 | 13.05858 | 36882 ft | 456 kts | 45° |
| 2026-05-07 16:56 | 55.29531 | 13.09803 | 37052 ft | 456 kts | 45° |
| 2026-05-07 16:56 | 55.36281 | 13.21727 | 37117 ft | 460 kts | 45° |
| 2026-05-07 16:57 | 55.40792 | 13.29732 | 37123 ft | 460 kts | 45° |
| 2026-05-07 16:57 | 55.45298 | 13.37757 | 37106 ft | 460 kts | 45° |
| 2026-05-07 16:58 | 55.49771 | 13.45761 | 37114 ft | 460 kts | 45° |
| 2026-05-07 16:58 | 55.54270 | 13.53822 | 37097 ft | 462 kts | 45° |
| 2026-05-07 16:59 | 55.58778 | 13.61937 | 37114 ft | 462 kts | 45° |
| 2026-05-07 16:59 | 55.63278 | 13.70078 | 37118 ft | 463 kts | 45° |
| 2026-05-07 17:00 | 55.67782 | 13.78233 | 37115 ft | 463 kts | 45° |
| 2026-05-07 17:00 | 55.72279 | 13.86413 | 37119 ft | 463 kts | 45° |
| 2026-05-07 17:01 | 55.76770 | 13.94634 | 37125 ft | 463 kts | 45° |
| 2026-05-07 17:01 | 55.81220 | 14.02815 | 37139 ft | 463 kts | 45° |
| 2026-05-07 17:02 | 55.85698 | 14.11075 | 37119 ft | 463 kts | 45° |
| 2026-05-07 17:02 | 55.90166 | 14.19355 | 37124 ft | 463 kts | 45° |
| 2026-05-07 17:03 | 55.94624 | 14.27654 | 37117 ft | 463 kts | 46° |
| 2026-05-07 17:03 | 55.99078 | 14.35981 | 37112 ft | 464 kts | 46° |
| 2026-05-07 17:04 | 56.03536 | 14.44347 | 37111 ft | 465 kts | 46° |
| 2026-05-07 17:04 | 56.07994 | 14.52727 | 37120 ft | 465 kts | 46° |
| 2026-05-07 17:05 | 56.12452 | 14.61133 | 37127 ft | 465 kts | 46° |
| 2026-05-07 17:05 | 56.16906 | 14.69572 | 37134 ft | 465 kts | 46° |
| 2026-05-07 17:06 | 56.21354 | 14.78020 | 37129 ft | 466 kts | 46° |
| 2026-05-07 17:06 | 56.25799 | 14.86501 | 37136 ft | 466 kts | 46° |
| 2026-05-07 17:07 | 56.30240 | 14.94994 | 37141 ft | 466 kts | 46° |
| 2026-05-07 17:07 | 56.34669 | 15.03509 | 37126 ft | 466 kts | 46° |
| 2026-05-07 17:08 | 56.39087 | 15.12051 | 37116 ft | 466 kts | 46° |
| 2026-05-07 17:08 | 56.43481 | 15.20558 | 37107 ft | 466 kts | 46° |
| 2026-05-07 17:09 | 56.47910 | 15.29156 | 37112 ft | 467 kts | 46° |
| 2026-05-07 17:09 | 56.52338 | 15.37786 | 37115 ft | 468 kts | 46° |
| 2026-05-07 17:10 | 56.56760 | 15.46456 | 37122 ft | 468 kts | 46° |
| 2026-05-07 17:10 | 56.61182 | 15.55146 | 37138 ft | 468 kts | 46° |
| 2026-05-07 17:11 | 56.65593 | 15.63853 | 37124 ft | 468 kts | 46° |
| 2026-05-07 17:11 | 56.69977 | 15.72537 | 37128 ft | 468 kts | 46° |
| 2026-05-07 17:12 | 56.74380 | 15.81275 | 37128 ft | 468 kts | 46° |
| 2026-05-07 17:12 | 56.78783 | 15.90044 | 37126 ft | 468 kts | 46° |
| 2026-05-07 17:13 | 56.83173 | 15.98835 | 37126 ft | 468 kts | 46° |
| 2026-05-07 17:13 | 56.87552 | 16.07641 | 37116 ft | 469 kts | 46° |
| 2026-05-07 17:14 | 56.91938 | 16.16485 | 37125 ft | 469 kts | 46° |
| 2026-05-07 17:14 | 56.96323 | 16.25365 | 37112 ft | 470 kts | 46° |
| 2026-05-07 17:15 | 57.00705 | 16.34271 | 37109 ft | 470 kts | 46° |
| 2026-05-07 17:15 | 57.05083 | 16.43203 | 37112 ft | 471 kts | 47° |
| 2026-05-07 17:16 | 57.09458 | 16.52158 | 37126 ft | 471 kts | 47° |
| 2026-05-07 17:16 | 57.13840 | 16.61168 | 37142 ft | 472 kts | 46° |
| 2026-05-07 17:17 | 57.18185 | 16.70127 | 37134 ft | 472 kts | 46° |
| 2026-05-07 17:17 | 57.22557 | 16.79168 | 37140 ft | 472 kts | 47° |
| 2026-05-07 17:18 | 57.26920 | 16.88249 | 37131 ft | 472 kts | 47° |
| 2026-05-07 17:18 | 57.31277 | 16.97360 | 37113 ft | 473 kts | 47° |
| 2026-05-07 17:19 | 57.35634 | 17.06499 | 37133 ft | 474 kts | 47° |
| 2026-05-07 17:19 | 57.39992 | 17.15673 | 37122 ft | 475 kts | 47° |
| 2026-05-07 17:20 | 57.44357 | 17.24890 | 37120 ft | 475 kts | 47° |
| 2026-05-07 17:20 | 57.47982 | 17.32567 | 37123 ft | 475 kts | 47° |
| 2026-05-07 17:21 | 57.52343 | 17.41836 | 37128 ft | 476 kts | 47° |
| 2026-05-07 17:21 | 57.56688 | 17.51122 | 37130 ft | 476 kts | 47° |
| 2026-05-07 17:22 | 57.61031 | 17.60440 | 37129 ft | 476 kts | 47° |
| 2026-05-07 17:22 | 57.65367 | 17.69769 | 37135 ft | 476 kts | 47° |
| 2026-05-07 17:23 | 57.69693 | 17.79126 | 37133 ft | 476 kts | 47° |
| 2026-05-07 17:23 | 57.74020 | 17.88519 | 37125 ft | 476 kts | 47° |
| 2026-05-07 17:24 | 57.78336 | 17.97921 | 37146 ft | 476 kts | 47° |
| 2026-05-07 17:24 | 57.82617 | 18.07287 | 37131 ft | 476 kts | 47° |
| 2026-05-07 17:25 | 57.86924 | 18.16743 | 37129 ft | 476 kts | 47° |
| 2026-05-07 17:25 | 57.91226 | 18.26221 | 37129 ft | 476 kts | 47° |
| 2026-05-07 17:26 | 57.95514 | 18.35708 | 37137 ft | 476 kts | 47° |
| 2026-05-07 17:26 | 57.99794 | 18.45229 | 37152 ft | 476 kts | 47° |
| 2026-05-07 17:27 | 58.04074 | 18.54787 | 37140 ft | 477 kts | 47° |
| 2026-05-07 17:27 | 58.08345 | 18.64367 | 37135 ft | 477 kts | 47° |
| 2026-05-07 17:28 | 58.12626 | 18.73974 | 37140 ft | 477 kts | 47° |
| 2026-05-07 17:28 | 58.16898 | 18.83623 | 37125 ft | 478 kts | 48° |
| 2026-05-07 17:29 | 58.21161 | 18.93296 | 37156 ft | 479 kts | 48° |
| 2026-05-07 17:29 | 58.25430 | 19.03036 | 37144 ft | 480 kts | 48° |
| 2026-05-07 17:30 | 58.29694 | 19.12817 | 37140 ft | 481 kts | 48° |
| 2026-05-07 17:30 | 58.33961 | 19.22624 | 37144 ft | 481 kts | 48° |
| 2026-05-07 17:31 | 58.38225 | 19.32448 | 37144 ft | 481 kts | 48° |
| 2026-05-07 17:31 | 58.42482 | 19.42290 | 37165 ft | 481 kts | 48° |
| 2026-05-07 17:32 | 58.46706 | 19.52108 | 37149 ft | 482 kts | 48° |
| 2026-05-07 17:32 | 58.50944 | 19.62034 | 37140 ft | 482 kts | 48° |
| 2026-05-07 17:33 | 58.55186 | 19.71990 | 37141 ft | 483 kts | 48° |
| 2026-05-07 17:33 | 58.59426 | 19.81960 | 37126 ft | 483 kts | 49° |
| 2026-05-07 17:34 | 58.63670 | 19.92000 | 37166 ft | 485 kts | 49° |
| 2026-05-07 17:34 | 58.67919 | 20.02081 | 37139 ft | 486 kts | 49° |
| 2026-05-07 17:35 | 58.72169 | 20.12232 | 37132 ft | 487 kts | 49° |
| 2026-05-07 17:35 | 58.76413 | 20.22426 | 37134 ft | 488 kts | 49° |
| 2026-05-07 17:36 | 58.80657 | 20.32631 | 37139 ft | 488 kts | 49° |
| 2026-05-07 17:36 | 58.84901 | 20.42887 | 37166 ft | 488 kts | 49° |
| 2026-05-07 17:37 | 58.89108 | 20.53108 | 37143 ft | 489 kts | 49° |
| 2026-05-07 17:37 | 58.93336 | 20.63428 | 37148 ft | 489 kts | 49° |
| 2026-05-07 17:38 | 58.97559 | 20.73761 | 37135 ft | 490 kts | 49° |
| 2026-05-07 17:38 | 59.01778 | 20.84139 | 37112 ft | 490 kts | 49° |
| 2026-05-07 17:39 | 59.05820 | 20.94808 | 37148 ft | 492 kts | 56° |
| 2026-05-07 17:39 | 59.09395 | 21.06169 | 37144 ft | 493 kts | 56° |
| 2026-05-07 17:40 | 59.12964 | 21.17560 | 37134 ft | 493 kts | 56° |
| 2026-05-07 17:40 | 59.16536 | 21.28988 | 37133 ft | 494 kts | 57° |
| 2026-05-07 17:41 | 59.20096 | 21.40449 | 37136 ft | 494 kts | 57° |
| 2026-05-07 17:41 | 59.23619 | 21.51863 | 37136 ft | 494 kts | 57° |
| 2026-05-07 17:42 | 59.27166 | 21.63375 | 37161 ft | 495 kts | 57° |
| 2026-05-07 17:42 | 59.30712 | 21.74940 | 37143 ft | 496 kts | 57° |
| 2026-05-07 17:43 | 59.34242 | 21.86562 | 37122 ft | 496 kts | 57° |
| 2026-05-07 17:43 | 59.37775 | 21.98233 | 37124 ft | 497 kts | 57° |
| 2026-05-07 17:44 | 59.41297 | 22.09893 | 37132 ft | 497 kts | 57° |
| 2026-05-07 17:44 | 59.44818 | 22.21600 | 37166 ft | 498 kts | 57° |
| 2026-05-07 17:45 | 59.48336 | 22.33358 | 37151 ft | 499 kts | 57° |
| 2026-05-07 17:45 | 59.51810 | 22.45080 | 37144 ft | 499 kts | 58° |
| 2026-05-07 17:46 | 59.55302 | 22.56908 | 37139 ft | 499 kts | 58° |
| 2026-05-07 17:46 | 59.58780 | 22.68764 | 37141 ft | 499 kts | 58° |
| 2026-05-07 17:47 | 59.62255 | 22.80663 | 36588 ft | 501 kts | 58° |
| 2026-05-07 17:47 | 59.63993 | 22.86620 | 36076 ft | 499 kts | 58° |
| 2026-05-07 17:47 | 59.65722 | 22.92564 | 35596 ft | 499 kts | 58° |
| 2026-05-07 17:48 | 59.67447 | 22.98518 | 35114 ft | 498 kts | 58° |
| 2026-05-07 17:48 | 59.69166 | 23.04470 | 34641 ft | 498 kts | 58° |
| 2026-05-07 17:48 | 59.70883 | 23.10423 | 34173 ft | 497 kts | 58° |
| 2026-05-07 17:48 | 59.72596 | 23.16378 | 33424 ft | 498 kts | 58° |
| 2026-05-07 17:49 | 59.74309 | 23.22342 | 32616 ft | 499 kts | 58° |
| 2026-05-07 17:49 | 59.76030 | 23.28344 | 31818 ft | 501 kts | 58° |
| 2026-05-07 17:49 | 59.77754 | 23.34361 | 31065 ft | 503 kts | 58° |
| 2026-05-07 17:49 | 59.79485 | 23.40415 | 30324 ft | 505 kts | 58° |
| 2026-05-07 17:50 | 59.81219 | 23.46497 | 29482 ft | 505 kts | 58° |
| 2026-05-07 17:50 | 59.82958 | 23.52545 | 28683 ft | 502 kts | 57° |
| 2026-05-07 17:50 | 59.84673 | 23.58471 | 27875 ft | 499 kts | 57° |
| 2026-05-07 17:50 | 59.86401 | 23.64436 | 27071 ft | 496 kts | 57° |
| 2026-05-07 17:51 | 59.88118 | 23.70394 | 26275 ft | 494 kts | 57° |
| 2026-05-07 17:51 | 59.89817 | 23.76322 | 25509 ft | 491 kts | 57° |
| 2026-05-07 17:51 | 59.91501 | 23.82213 | 24775 ft | 488 kts | 57° |
| 2026-05-07 17:51 | 59.93176 | 23.88081 | 24063 ft | 486 kts | 57° |
| 2026-05-07 17:52 | 59.94830 | 23.93887 | 23260 ft | 473 kts | 57° |
| 2026-05-07 17:52 | 59.96429 | 23.99527 | 22437 ft | 461 kts | 57° |
| 2026-05-07 17:52 | 59.97992 | 24.05055 | 21630 ft | 453 kts | 57° |
| 2026-05-07 17:52 | 59.99530 | 24.10513 | 20844 ft | 447 kts | 57° |
| 2026-05-07 17:53 | 60.01048 | 24.15898 | 20028 ft | 444 kts | 57° |
| 2026-05-07 17:53 | 60.02548 | 24.21241 | 19148 ft | 436 kts | 57° |
| 2026-05-07 17:53 | 60.04016 | 24.26478 | 18292 ft | 427 kts | 57° |
| 2026-05-07 17:53 | 60.05454 | 24.31617 | 17320 ft | 419 kts | 57° |
| 2026-05-07 17:54 | 60.06862 | 24.36672 | 16392 ft | 412 kts | 58° |
| 2026-05-07 17:54 | 60.08240 | 24.41637 | 15483 ft | 404 kts | 58° |
| 2026-05-07 17:54 | 60.09587 | 24.46503 | 14603 ft | 396 kts | 58° |
| 2026-05-07 17:54 | 60.10894 | 24.51225 | 13737 ft | 388 kts | 58° |
| 2026-05-07 17:55 | 60.12202 | 24.55961 | 12759 ft | 380 kts | 58° |
| 2026-05-07 17:55 | 60.13449 | 24.60480 | 12111 ft | 370 kts | 59° |
| 2026-05-07 17:55 | 60.14685 | 24.64971 | 11662 ft | 366 kts | 59° |
| 2026-05-07 17:55 | 60.15909 | 24.69409 | 11273 ft | 361 kts | 59° |
| 2026-05-07 17:56 | 60.17118 | 24.73799 | 10893 ft | 357 kts | 59° |
| 2026-05-07 17:56 | 60.18306 | 24.78135 | 10507 ft | 351 kts | 59° |
| 2026-05-07 17:56 | 60.19467 | 24.82383 | 10189 ft | 342 kts | 59° |
| 2026-05-07 17:56 | 60.20582 | 24.86471 | 10134 ft | 325 kts | 59° |
| 2026-05-07 17:57 | 60.21641 | 24.90365 | 10079 ft | 310 kts | 59° |
| 2026-05-07 17:57 | 60.22326 | 24.92899 | 10041 ft | 301 kts | 59° |
| 2026-05-07 17:57 | 60.23635 | 24.97737 | 9793 ft | 292 kts | 59° |
| 2026-05-07 17:57 | 60.24609 | 25.01322 | 9512 ft | 291 kts | 59° |
| 2026-05-07 17:58 | 60.25686 | 25.04723 | 9141 ft | 286 kts | 47° |
| 2026-05-07 17:58 | 60.27128 | 25.07426 | 8762 ft | 280 kts | 32° |
| 2026-05-07 17:58 | 60.28824 | 25.09247 | 8389 ft | 275 kts | 18° |
| 2026-05-07 17:58 | 60.30654 | 25.10257 | 8021 ft | 271 kts | 12° |
| 2026-05-07 17:59 | 60.32484 | 25.11159 | 7656 ft | 269 kts | 12° |
| 2026-05-07 17:59 | 60.34305 | 25.11824 | 7274 ft | 264 kts | 1° |
| 2026-05-07 17:59 | 60.36119 | 25.11560 | 6891 ft | 261 kts | 347° |
| 2026-05-07 17:59 | 60.37823 | 25.10378 | 6512 ft | 258 kts | 334° |
| 2026-05-07 18:00 | 60.39399 | 25.08750 | 6116 ft | 257 kts | 333° |
| 2026-05-07 18:00 | 60.41013 | 25.07089 | 5718 ft | 257 kts | 333° |
| 2026-05-07 18:00 | 60.42601 | 25.05457 | 5324 ft | 255 kts | 333° |
| 2026-05-07 18:00 | 60.44156 | 25.03863 | 5031 ft | 250 kts | 333° |
| 2026-05-07 18:01 | 60.45652 | 25.02323 | 4987 ft | 233 kts | 333° |
| 2026-05-07 18:01 | 60.47077 | 25.00838 | 4736 ft | 227 kts | 333° |
| 2026-05-07 18:01 | 60.48465 | 24.99388 | 4469 ft | 222 kts | 333° |
| 2026-05-07 18:01 | 60.49829 | 24.97957 | 4207 ft | 220 kts | 333° |
| 2026-05-07 18:02 | 60.51535 | 24.93212 | 3688 ft | 222 kts | 272° |
| 2026-05-07 18:02 | 60.51295 | 24.90107 | 3434 ft | 225 kts | 258° |
| 2026-05-07 18:02 | 60.50867 | 24.87050 | 3173 ft | 225 kts | 256° |
| 2026-05-07 18:03 | 60.50383 | 24.84035 | 2897 ft | 225 kts | 246° |
| 2026-05-07 18:03 | 60.49360 | 24.81696 | 2645 ft | 225 kts | 210° |
| 2026-05-07 18:03 | 60.47844 | 24.81200 | 2387 ft | 227 kts | 168° |
| 2026-05-07 18:03 | 60.46404 | 24.82516 | 2119 ft | 229 kts | 153° |
| 2026-05-07 18:04 | 60.45012 | 24.84063 | 2003 ft | 223 kts | 154° |
| 2026-05-07 18:04 | 60.43681 | 24.85469 | 2007 ft | 208 kts | 155° |
| 2026-05-07 18:04 | 60.42429 | 24.86767 | 2004 ft | 197 kts | 155° |
| 2026-05-07 18:04 | 60.41232 | 24.88001 | 2014 ft | 192 kts | 155° |
| 2026-05-07 18:05 | 60.40051 | 24.89219 | 1758 ft | 189 kts | 155° |
| 2026-05-07 18:05 | 60.38891 | 24.90414 | 1502 ft | 186 kts | 156° |
| 2026-05-07 18:05 | 60.37760 | 24.91580 | 1264 ft | 178 kts | 155° |
| 2026-05-07 18:05 | 60.36698 | 24.92676 | 1031 ft | 162 kts | 155° |
| 2026-05-07 18:06 | 60.35736 | 24.93666 | 802 ft | 148 kts | 154° |
| 2026-05-07 18:06 | 60.34854 | 24.94572 | 611 ft | 141 kts | 154° |
| 2026-05-07 18:06 | 60.33989 | 24.95460 | 425 ft | 138 kts | 154° |
| 2026-05-07 18:06 | 60.33142 | 24.96329 | 248 ft | 136 kts | 154° |
| 2026-05-07 18:07 | 60.32336 | 24.97154 | 160 ft | 114 kts | 153° |
| 2026-05-07 18:07 | 60.31781 | 24.97724 | 152 ft | 65 kts | 152° |
| 2026-05-07 18:07 | 60.31506 | 24.97986 | 153 ft | 24 kts | 172° |
| 2026-05-07 18:07 | 60.31416 | 24.97869 | 155 ft | 6 kts | 239° |
| 2026-05-07 18:08 | 60.31407 | 24.97834 | 155 ft | 0 kts | 245° |
| 2026-05-07 18:10 | 60.31406 | 24.97833 | 155 ft | 0 kts | 245° |
| 2026-05-07 18:10 | 60.31400 | 24.97802 | 156 ft | 5 kts | 245° |
| 2026-05-07 18:11 | 60.31380 | 24.97708 | 158 ft | 9 kts | 257° |
| 2026-05-07 18:11 | 60.31418 | 24.97624 | 159 ft | 10 kts | 333° |
| 2026-05-07 18:11 | 60.31483 | 24.97552 | 160 ft | 9 kts | 332° |
| 2026-05-07 18:11 | 60.31500 | 24.97534 | 160 ft | 5 kts | 332° |
| 2026-05-07 18:12 | 60.31554 | 24.97473 | 162 ft | 8 kts | 333° |
| 2026-05-07 18:12 | 60.31591 | 24.97436 | 164 ft | 4 kts | 333° |
| 2026-05-07 18:12 | 60.31633 | 24.97393 | 166 ft | 13 kts | 333° |
| 2026-05-07 18:12 | 60.31666 | 24.97360 | 166 ft | 10 kts | 333° |
| 2026-05-07 18:13 | 60.31690 | 24.97276 | 166 ft | 6 kts | 246° |
| 2026-05-07 18:13 | 60.31680 | 24.97241 | 166 ft | 1 kts | 242° |
| 2026-05-07 18:13 | 60.31673 | 24.97212 | 166 ft | 2 kts | 242° |
| 2026-05-07 18:13 | 60.31672 | 24.97206 | 166 ft | 0 kts | 242° |